createdAt,value
2023-03-02T00:00:43.454Z,3.30
2023-03-02T00:03:17.577Z,3.35
2023-03-02T00:05:50.242Z,3.40
2023-03-02T00:08:23.049Z,3.44
2023-03-02T00:10:56.360Z,3.57
2023-03-02T00:13:30.125Z,3.62
2023-03-02T00:16:02.507Z,3.49
2023-03-02T00:18:35.598Z,3.58
2023-03-02T00:21:09.872Z,3.64
2023-03-02T00:23:42.253Z,3.70
2023-03-02T00:26:14.549Z,3.72
2023-03-02T00:28:47.299Z,3.74
2023-03-02T00:31:19.840Z,3.60
2023-03-02T00:33:54.062Z,3.56
2023-03-02T00:36:26.731Z,3.42
2023-03-02T00:38:59.283Z,3.35
2023-03-02T00:41:31.749Z,3.44
2023-03-02T00:44:04.353Z,3.39
2023-03-02T00:46:37.017Z,3.38
2023-03-02T00:49:10.471Z,3.36
2023-03-02T00:51:42.838Z,3.33
2023-03-02T00:54:15.252Z,3.25
2023-03-02T00:56:47.594Z,3.27
2023-03-02T00:59:29.774Z,3.30
2023-03-02T01:02:25.054Z,3.34
2023-03-02T01:04:58.935Z,3.45
2023-03-02T01:07:31.617Z,3.53
2023-03-02T01:10:04.615Z,3.59
2023-03-02T01:12:36.958Z,3.60
2023-03-02T01:15:10.776Z,3.53
2023-03-02T01:17:43.609Z,3.52
2023-03-02T01:20:17.646Z,3.44
2023-03-02T01:22:50.030Z,3.51
2023-03-02T01:25:22.397Z,3.55
2023-03-02T01:27:54.772Z,3.52
2023-03-02T01:30:27.119Z,3.53
2023-03-02T01:32:59.459Z,3.38
2023-03-02T01:35:32.410Z,3.41
2023-03-02T01:38:04.930Z,3.44
2023-03-02T01:40:37.401Z,3.49
2023-03-02T01:43:12.983Z,3.54
2023-03-02T01:45:52.542Z,3.45
2023-03-02T01:48:41.848Z,3.38
2023-03-02T01:51:18.214Z,3.52
2023-03-02T01:53:55.590Z,3.50
2023-03-02T01:56:34.063Z,3.50
2023-03-02T01:59:11.771Z,3.37
2023-03-02T02:01:47.056Z,3.43
2023-03-02T02:04:21.316Z,3.34
2023-03-02T02:06:59.514Z,3.25
2023-03-02T02:09:36.114Z,3.39
2023-03-02T02:12:13.815Z,3.41
2023-03-02T02:14:47.914Z,3.42
2023-03-02T02:17:20.510Z,3.47
2023-03-02T02:20:04.916Z,3.41
2023-03-02T02:22:49.512Z,3.38
2023-03-02T02:25:33.648Z,3.42
2023-03-02T02:28:12.652Z,3.43
2023-03-02T02:30:47.707Z,3.43
2023-03-02T02:33:24.317Z,3.33
2023-03-02T02:36:03.515Z,3.24
2023-03-02T02:38:39.564Z,3.23
2023-03-02T02:41:18.968Z,3.24
2023-03-02T02:43:52.412Z,3.22
2023-03-02T02:46:25.322Z,3.27
2023-03-02T02:48:57.718Z,3.31
2023-03-02T02:51:30.344Z,3.30
2023-03-02T02:54:03.808Z,3.01
2023-03-02T02:56:42.014Z,3.08
2023-03-02T02:59:21.729Z,3.15
2023-03-02T03:01:56.294Z,3.14
2023-03-02T03:04:31.405Z,2.99
2023-03-02T03:07:06.076Z,3.08
2023-03-02T03:09:38.915Z,3.14
2023-03-02T03:12:16.181Z,3.20
2023-03-02T03:14:50.568Z,3.10
2023-03-02T03:17:22.940Z,3.10
2023-03-02T03:20:05.770Z,3.00
2023-03-02T03:22:40.904Z,3.04
2023-03-02T03:25:15.814Z,2.98
2023-03-02T03:27:51.428Z,3.00
2023-03-02T03:30:25.828Z,2.96
2023-03-02T03:32:58.488Z,3.01
2023-03-02T03:35:30.923Z,2.87
2023-03-02T03:38:03.740Z,2.75
2023-03-02T03:40:36.102Z,2.74
2023-03-02T03:43:08.970Z,2.73
2023-03-02T03:45:41.985Z,2.73
2023-03-02T03:48:14.368Z,2.77
2023-03-02T03:50:46.710Z,2.75
2023-03-02T03:53:19.558Z,2.66
2023-03-02T03:55:52.498Z,2.65
2023-03-02T03:58:25.268Z,2.74
2023-03-02T04:00:59.079Z,2.71
2023-03-02T04:03:31.477Z,2.75
2023-03-02T04:06:04.037Z,2.74
2023-03-02T04:08:36.555Z,2.68
2023-03-02T04:11:08.894Z,2.63
2023-03-02T04:13:41.258Z,2.67
2023-03-02T04:16:14.483Z,2.71
2023-03-02T04:18:46.899Z,2.77
2023-03-02T04:21:19.306Z,2.58
2023-03-02T04:23:51.916Z,2.66
2023-03-02T04:26:26.167Z,2.74
2023-03-02T04:28:58.619Z,2.80
2023-03-02T04:31:32.054Z,2.73
2023-03-02T04:34:06.516Z,2.60
2023-03-02T04:36:40.769Z,2.62
2023-03-02T04:39:18.278Z,2.62
2023-03-02T04:41:54.982Z,2.71
2023-03-02T04:44:27.394Z,2.75
2023-03-02T04:47:00.427Z,2.72
2023-03-02T04:49:32.720Z,2.74
2023-03-02T04:52:05.366Z,2.77
2023-03-02T04:54:37.674Z,2.63
2023-03-02T04:57:09.973Z,2.60
2023-03-02T04:59:42.303Z,2.59
2023-03-02T05:02:15.369Z,2.62
2023-03-02T05:04:47.764Z,2.66
2023-03-02T05:07:20.140Z,2.62
2023-03-02T05:09:52.389Z,2.69
2023-03-02T05:12:24.705Z,2.68
2023-03-02T05:14:57.068Z,2.54
2023-03-02T05:17:30.023Z,2.61
2023-03-02T05:20:06.421Z,2.56
2023-03-02T05:22:38.730Z,2.60
2023-03-02T05:25:12.039Z,2.55
2023-03-02T05:27:44.326Z,2.53
2023-03-02T05:30:17.127Z,2.46
2023-03-02T05:32:50.544Z,2.45
2023-03-02T05:35:23.124Z,2.41
2023-03-02T05:37:55.502Z,2.28
2023-03-02T05:40:27.910Z,2.23
2023-03-02T05:43:00.999Z,2.35
2023-03-02T05:45:35.894Z,2.27
2023-03-02T05:48:10.228Z,2.24
2023-03-02T05:50:42.570Z,2.22
2023-03-02T05:53:14.962Z,2.26
2023-03-02T05:55:47.526Z,2.33
2023-03-02T05:58:20.537Z,2.40
2023-03-02T06:00:52.828Z,2.42
2023-03-02T06:03:25.806Z,2.46
2023-03-02T06:05:58.207Z,2.41
2023-03-02T06:08:30.822Z,2.53
2023-03-02T06:11:03.160Z,2.61
2023-03-02T06:13:37.727Z,2.66
2023-03-02T06:16:10.112Z,2.56
2023-03-02T06:18:43.168Z,2.66
2023-03-02T06:21:15.556Z,2.59
2023-03-02T06:23:47.919Z,2.61
2023-03-02T06:26:20.247Z,2.63
2023-03-02T06:28:53.915Z,2.55
2023-03-02T06:31:26.537Z,2.52
2023-03-02T06:33:59.770Z,2.53
2023-03-02T06:36:32.394Z,2.45
2023-03-02T06:39:04.993Z,2.45
2023-03-02T06:41:37.271Z,2.51
2023-03-02T06:44:09.881Z,2.52
2023-03-02T06:46:43.387Z,2.48
2023-03-02T06:49:16.348Z,2.49
2023-03-02T06:51:48.616Z,2.62
2023-03-02T06:54:22.638Z,2.64
2023-03-02T06:56:57.117Z,2.74
2023-03-02T06:59:29.513Z,2.74
2023-03-02T07:02:02.209Z,2.77
2023-03-02T07:04:35.213Z,2.93
2023-03-02T07:07:07.685Z,2.97
2023-03-02T07:09:40.256Z,2.96
2023-03-02T07:12:12.682Z,2.91
2023-03-02T07:14:44.986Z,2.86
2023-03-02T07:17:17.364Z,2.93
2023-03-02T07:19:50.422Z,3.01
2023-03-02T07:22:22.770Z,2.90
2023-03-02T07:24:55.102Z,2.89
2023-03-02T07:27:27.776Z,2.94
2023-03-02T07:30:00.159Z,2.99
2023-03-02T07:32:33.577Z,2.98
2023-03-02T07:35:07.579Z,3.01
2023-03-02T07:37:40.070Z,2.85
2023-03-02T07:40:13.399Z,3.00
2023-03-02T07:42:45.669Z,3.05
2023-03-02T07:45:21.200Z,3.15
2023-03-02T07:47:53.498Z,3.02
2023-03-02T07:50:26.490Z,2.97
2023-03-02T07:53:00.020Z,3.03
2023-03-02T07:55:32.781Z,3.08
2023-03-02T07:58:05.087Z,3.04
2023-03-02T08:00:40.230Z,3.01
2023-03-02T08:03:13.576Z,3.07
2023-03-02T08:05:46.648Z,2.98
2023-03-02T08:08:18.948Z,3.07
2023-03-02T08:10:51.235Z,3.12
2023-03-02T08:13:23.520Z,3.01
2023-03-02T08:15:59.892Z,3.09
2023-03-02T08:18:33.358Z,3.01
2023-03-02T08:21:11.231Z,3.07
2023-03-02T08:23:44.004Z,2.98
2023-03-02T08:26:17.774Z,3.07
2023-03-02T08:28:50.087Z,3.14
2023-03-02T08:31:22.516Z,3.14
2023-03-02T08:33:54.787Z,3.09
2023-03-02T08:36:27.766Z,3.11
2023-03-02T08:39:00.118Z,3.01
2023-03-02T08:41:34.188Z,3.05
2023-03-02T08:44:06.984Z,3.04
2023-03-02T08:46:39.297Z,3.04
2023-03-02T08:49:11.551Z,3.16
2023-03-02T08:51:45.407Z,3.15
2023-03-02T08:54:17.695Z,3.23
2023-03-02T08:56:50.028Z,3.25
2023-03-02T08:59:22.376Z,3.17
2023-03-02T09:01:54.684Z,3.23
2023-03-02T09:04:26.993Z,3.34
2023-03-02T09:07:00.018Z,3.41
2023-03-02T09:09:32.673Z,3.28
2023-03-02T09:12:05.200Z,3.45
2023-03-02T09:14:37.519Z,3.51
2023-03-02T09:17:12.220Z,3.53
2023-03-02T09:19:44.789Z,3.53
2023-03-02T09:22:17.913Z,3.62
2023-03-02T09:24:50.407Z,3.61
2023-03-02T09:27:22.865Z,3.73
2023-03-02T09:29:55.223Z,3.77
2023-03-02T09:32:27.724Z,3.84
2023-03-02T09:35:00.268Z,3.81
2023-03-02T09:37:34.505Z,3.98
2023-03-02T09:40:16.852Z,3.95
2023-03-02T09:43:05.601Z,4.09
2023-03-02T09:45:51.633Z,4.24
2023-03-02T09:48:35.808Z,4.17
2023-03-02T09:51:32.486Z,4.25
2023-03-02T09:54:10.025Z,4.30
2023-03-02T09:56:44.735Z,4.32
2023-03-02T09:59:24.192Z,4.37
2023-03-02T10:02:01.891Z,4.34
2023-03-02T10:04:40.813Z,4.39
2023-03-02T10:07:15.982Z,4.53
2023-03-02T10:09:49.031Z,4.64
2023-03-02T10:12:41.539Z,4.53
2023-03-02T10:15:19.067Z,4.48
2023-03-02T10:18:03.675Z,4.41
2023-03-02T10:20:42.585Z,4.49
2023-03-02T10:23:36.579Z,4.36
2023-03-02T10:26:27.173Z,4.47
2023-03-02T10:29:10.353Z,4.43
2023-03-02T10:31:42.976Z,4.43
2023-03-02T10:34:16.291Z,4.29
2023-03-02T10:36:48.652Z,4.36
2023-03-02T10:39:21.060Z,4.41
2023-03-02T10:41:59.141Z,4.41
2023-03-02T10:44:36.345Z,4.50
2023-03-02T10:47:20.321Z,4.38
2023-03-02T10:49:54.171Z,4.50
2023-03-02T10:52:28.233Z,4.63
2023-03-02T10:55:06.229Z,4.63
2023-03-02T10:57:40.642Z,4.54
2023-03-02T11:00:20.986Z,4.48
2023-03-02T11:02:55.074Z,4.43
2023-03-02T11:05:31.038Z,4.32
2023-03-02T11:08:05.427Z,4.53
2023-03-02T11:10:40.247Z,4.38
2023-03-02T11:13:18.346Z,4.36
2023-03-02T11:15:52.615Z,4.19
2023-03-02T11:18:28.771Z,4.10
2023-03-02T11:21:05.358Z,4.18
2023-03-02T11:23:45.353Z,4.18
2023-03-02T11:26:22.792Z,4.26
2023-03-02T11:29:00.986Z,4.38
2023-03-02T11:31:39.712Z,4.34
2023-03-02T11:34:31.775Z,4.32
2023-03-02T11:37:15.181Z,4.33
2023-03-02T11:40:13.512Z,4.29
2023-03-02T11:42:46.741Z,4.41
2023-03-02T11:45:23.037Z,4.34
2023-03-02T11:48:03.543Z,4.25
2023-03-02T11:50:53.217Z,4.38
2023-03-02T11:53:30.940Z,4.28
2023-03-02T11:56:03.553Z,4.23
2023-03-02T11:58:37.383Z,4.37
2023-03-02T12:01:17.846Z,4.39
2023-03-02T12:03:51.046Z,4.48
2023-03-02T12:06:28.090Z,4.38
2023-03-02T12:09:10.522Z,4.41
2023-03-02T12:11:45.854Z,4.26
2023-03-02T12:14:28.883Z,4.43
2023-03-02T12:17:06.763Z,4.38
2023-03-02T12:19:41.811Z,4.36
2023-03-02T12:22:26.115Z,4.40
2023-03-02T12:25:05.608Z,4.43
2023-03-02T12:27:41.386Z,4.48
2023-03-02T12:30:26.758Z,4.56
2023-03-02T12:33:04.266Z,4.33
2023-03-02T12:35:37.084Z,4.48
2023-03-02T12:38:24.843Z,4.57
2023-03-02T12:41:24.754Z,4.31
2023-03-02T12:44:06.997Z,4.34
2023-03-02T12:46:45.522Z,4.30
2023-03-02T12:49:32.181Z,4.32
2023-03-02T12:52:22.792Z,4.38
2023-03-02T12:55:01.476Z,4.39
2023-03-02T12:57:37.117Z,4.49
2023-03-02T13:00:16.102Z,4.53
2023-03-02T13:02:52.300Z,4.70
2023-03-02T13:05:28.729Z,4.73
2023-03-02T13:08:04.255Z,4.52
2023-03-02T13:10:39.613Z,4.59
2023-03-02T13:13:16.128Z,4.56
2023-03-02T13:15:50.721Z,4.60
2023-03-02T13:18:25.859Z,4.59
2023-03-02T13:21:00.276Z,4.60
2023-03-02T13:23:33.520Z,4.60
2023-03-02T13:26:06.150Z,4.75
2023-03-02T13:28:39.642Z,4.79
2023-03-02T13:31:20.030Z,4.76
2023-03-02T13:33:55.278Z,4.70
2023-03-02T13:36:30.332Z,4.69
2023-03-02T13:39:06.372Z,4.72
2023-03-02T13:41:40.043Z,4.86
2023-03-02T13:44:19.054Z,4.93
2023-03-02T13:46:51.508Z,4.83
2023-03-02T13:49:28.750Z,4.91
2023-03-02T13:52:08.079Z,4.89
2023-03-02T13:54:44.029Z,5.01
2023-03-02T13:57:24.830Z,5.08
2023-03-02T13:59:57.690Z,5.17
2023-03-02T14:02:30.576Z,5.11
2023-03-02T14:05:03.239Z,5.06
2023-03-02T14:07:36.416Z,5.08
2023-03-02T14:10:40.629Z,4.95
2023-03-02T14:13:16.507Z,4.87
2023-03-02T14:15:51.038Z,5.05
2023-03-02T14:18:32.353Z,4.99
2023-03-02T14:21:05.521Z,4.90
2023-03-02T14:23:40.374Z,4.93
2023-03-02T14:26:26.218Z,4.92
2023-03-02T14:29:05.491Z,4.85
2023-03-02T14:31:38.109Z,4.79
2023-03-02T14:34:12.371Z,4.76
2023-03-02T14:36:47.825Z,4.70
2023-03-02T14:39:23.429Z,4.68
2023-03-02T14:41:56.318Z,4.77
2023-03-02T14:44:28.804Z,4.66
2023-03-02T14:47:01.430Z,4.60
2023-03-02T14:49:33.765Z,4.62
2023-03-02T14:52:11.312Z,4.57
2023-03-02T14:54:48.553Z,4.52
2023-03-02T14:57:24.481Z,4.42
2023-03-02T14:59:59.043Z,4.47
2023-03-02T15:02:31.471Z,4.42
2023-03-02T15:05:04.318Z,4.38
2023-03-02T15:07:38.228Z,4.37
2023-03-02T15:10:14.675Z,4.27
2023-03-02T15:12:47.256Z,4.31
2023-03-02T15:15:19.541Z,4.27
2023-03-02T15:17:52.837Z,4.20
2023-03-02T15:20:25.150Z,4.14
2023-03-02T15:22:57.675Z,4.02
2023-03-02T15:25:30.665Z,4.04
2023-03-02T15:28:04.606Z,4.06
2023-03-02T15:30:36.888Z,3.93
2023-03-02T15:33:09.412Z,3.63
2023-03-02T15:35:41.740Z,3.61
2023-03-02T15:38:14.181Z,3.59
2023-03-02T15:40:47.170Z,3.71
2023-03-02T15:43:19.490Z,3.73
2023-03-02T15:45:51.953Z,3.67
2023-03-02T15:48:24.471Z,3.78
2023-03-02T15:50:57.678Z,3.78
2023-03-02T15:53:31.539Z,3.84
2023-03-02T15:56:05.965Z,3.71
2023-03-02T15:58:38.333Z,3.74
2023-03-02T16:01:11.393Z,3.68
2023-03-02T16:03:45.160Z,3.74
2023-03-02T16:06:17.608Z,3.78
2023-03-02T16:08:50.311Z,3.71
2023-03-02T16:11:23.406Z,3.74
2023-03-02T16:13:55.920Z,3.69
2023-03-02T16:16:28.556Z,3.68
2023-03-02T16:19:01.359Z,3.63
2023-03-02T16:21:33.674Z,3.66
2023-03-02T16:24:07.154Z,3.71
2023-03-02T16:26:40.223Z,3.75
2023-03-02T16:29:13.578Z,3.65
2023-03-02T16:31:46.953Z,3.60
2023-03-02T16:34:19.445Z,3.62
2023-03-02T16:36:51.823Z,3.57
2023-03-02T16:39:24.236Z,3.49
2023-03-02T16:41:57.244Z,3.50
2023-03-02T16:44:29.570Z,3.42
2023-03-02T16:47:01.963Z,3.44
2023-03-02T16:49:34.411Z,3.32
2023-03-02T16:52:06.763Z,3.30
2023-03-02T16:54:39.104Z,3.34
2023-03-02T16:57:12.230Z,3.26
2023-03-02T16:59:44.604Z,3.18
2023-03-02T17:02:16.859Z,3.15
2023-03-02T17:04:49.226Z,3.16
2023-03-02T17:07:21.598Z,3.01
2023-03-02T17:09:54.175Z,3.02
2023-03-02T17:12:27.152Z,2.97
2023-03-02T17:14:59.721Z,3.01
2023-03-02T17:17:32.118Z,3.03
2023-03-02T17:20:05.509Z,2.93
2023-03-02T17:22:38.241Z,3.01
2023-03-02T17:25:11.532Z,3.02
2023-03-02T17:27:45.088Z,3.00
2023-03-02T17:30:17.838Z,2.95
2023-03-02T17:32:50.259Z,3.06
2023-03-02T17:35:22.644Z,3.05
2023-03-02T17:37:55.019Z,3.06
2023-03-02T17:40:27.498Z,3.14
2023-03-02T17:43:00.937Z,2.91
2023-03-02T17:45:33.359Z,2.95
2023-03-02T17:48:05.841Z,2.91
2023-03-02T17:50:38.234Z,2.94
2023-03-02T17:53:10.629Z,2.89
2023-03-02T17:55:42.980Z,2.89
2023-03-02T17:58:18.117Z,2.98
2023-03-02T18:00:52.941Z,2.98
2023-03-02T18:03:26.327Z,2.93
2023-03-02T18:05:58.773Z,2.97
2023-03-02T18:08:32.416Z,2.96
2023-03-02T18:11:05.582Z,3.01
2023-03-02T18:13:39.506Z,3.04
2023-03-02T18:16:11.918Z,2.94
2023-03-02T18:18:44.320Z,2.82
2023-03-02T18:21:17.821Z,2.73
2023-03-02T18:23:50.179Z,2.77
2023-03-02T18:26:23.136Z,2.72
2023-03-02T18:28:56.158Z,2.69
2023-03-02T18:31:30.645Z,2.60
2023-03-02T18:34:03.612Z,2.66
2023-03-02T18:36:36.152Z,2.78
2023-03-02T18:39:08.671Z,2.72
2023-03-02T18:41:41.949Z,2.67
2023-03-02T18:44:14.985Z,2.68
2023-03-02T18:46:47.334Z,2.76
2023-03-02T18:49:19.872Z,2.71
2023-03-02T18:51:54.467Z,2.72
2023-03-02T18:54:26.862Z,2.79
2023-03-02T18:56:59.274Z,2.80
2023-03-02T18:59:32.820Z,2.76
2023-03-02T19:02:07.511Z,2.76
2023-03-02T19:04:39.917Z,2.78
2023-03-02T19:07:12.304Z,2.70
2023-03-02T19:09:44.617Z,2.60
2023-03-02T19:12:17.793Z,2.54
2023-03-02T19:14:50.827Z,2.51
2023-03-02T19:17:23.485Z,2.55
2023-03-02T19:19:55.876Z,2.57
2023-03-02T19:22:28.190Z,2.58
2023-03-02T19:25:00.548Z,2.61
2023-03-02T19:27:33.077Z,2.52
2023-03-02T19:30:08.115Z,2.48
2023-03-02T19:32:40.532Z,2.55
2023-03-02T19:35:17.056Z,2.59
2023-03-02T19:37:50.044Z,2.59
2023-03-02T19:40:25.113Z,2.60
2023-03-02T19:42:57.813Z,2.66
2023-03-02T19:45:34.117Z,2.58
2023-03-02T19:48:08.339Z,2.47
2023-03-02T19:50:40.995Z,2.49
2023-03-02T19:53:13.861Z,2.51
2023-03-02T19:55:46.300Z,2.48
2023-03-02T19:58:19.212Z,2.41
2023-03-02T20:00:52.259Z,2.53
2023-03-02T20:03:24.862Z,2.51
2023-03-02T20:05:58.238Z,2.57
2023-03-02T20:08:30.558Z,2.49
2023-03-02T20:11:03.041Z,2.51
2023-03-02T20:13:35.584Z,2.54
2023-03-02T20:16:09.004Z,2.52
2023-03-02T20:18:41.604Z,2.52
2023-03-02T20:21:13.967Z,2.55
2023-03-02T20:23:49.252Z,2.61
2023-03-02T20:26:23.771Z,2.63
2023-03-02T20:28:57.854Z,2.63
2023-03-02T20:31:33.529Z,2.63
2023-03-02T20:34:08.801Z,2.65
2023-03-02T20:36:41.362Z,2.73
2023-03-02T20:39:17.288Z,2.77
2023-03-02T20:41:49.811Z,2.78
2023-03-02T20:44:24.842Z,2.79
2023-03-02T20:47:00.828Z,2.80
2023-03-02T20:49:33.568Z,2.77
2023-03-02T20:52:07.876Z,2.80
2023-03-02T20:54:41.686Z,2.81
2023-03-02T20:57:15.777Z,2.80
2023-03-02T20:59:49.105Z,2.76
2023-03-02T21:02:22.466Z,2.78
2023-03-02T21:04:54.906Z,2.75
2023-03-02T21:07:27.339Z,2.80
2023-03-02T21:09:59.671Z,2.83
2023-03-02T21:12:32.858Z,2.88
2023-03-02T21:15:06.646Z,2.88
2023-03-02T21:17:39.687Z,2.84
2023-03-02T21:20:12.712Z,2.83
2023-03-02T21:22:45.238Z,2.79
2023-03-02T21:25:17.899Z,2.70
2023-03-02T21:27:50.302Z,2.71
2023-03-02T21:30:27.012Z,2.73
2023-03-02T21:33:00.293Z,2.81
2023-03-02T21:35:32.659Z,2.86
2023-03-02T21:38:05.471Z,2.91
2023-03-02T21:40:42.343Z,2.85
2023-03-02T21:43:15.483Z,2.72
2023-03-02T21:45:47.944Z,2.61
2023-03-02T21:48:22.930Z,2.61
2023-03-02T21:50:55.498Z,2.61
2023-03-02T21:53:27.867Z,2.53
2023-03-02T21:56:01.105Z,2.42
2023-03-02T21:58:33.834Z,2.41
2023-03-02T22:01:06.315Z,2.28
2023-03-02T22:03:39.428Z,2.27
2023-03-02T22:06:16.926Z,2.40
2023-03-02T22:08:49.594Z,2.43
2023-03-02T22:11:23.456Z,2.40
2023-03-02T22:13:58.316Z,2.40
2023-03-02T22:16:35.500Z,2.39
2023-03-02T22:19:23.411Z,2.32
2023-03-02T22:21:57.083Z,2.33
2023-03-02T22:24:31.590Z,2.30
2023-03-02T22:27:19.670Z,2.18
2023-03-02T22:29:53.942Z,2.13
2023-03-02T22:32:28.625Z,1.99
2023-03-02T22:35:13.670Z,1.97
2023-03-02T22:37:46.107Z,2.01
2023-03-02T22:40:27.972Z,1.93
2023-03-02T22:43:13.766Z,1.89
2023-03-02T22:45:46.068Z,1.99
2023-03-02T22:48:20.886Z,1.96
2023-03-02T22:50:54.357Z,2.09
2023-03-02T22:53:28.879Z,2.21
2023-03-02T22:56:02.784Z,2.29
2023-03-02T22:58:46.041Z,2.23
2023-03-02T23:01:21.411Z,2.17
2023-03-02T23:03:56.836Z,2.14
2023-03-02T23:06:31.744Z,2.14
2023-03-02T23:09:06.045Z,2.13
2023-03-02T23:11:41.440Z,2.04
2023-03-02T23:14:35.830Z,2.09
2023-03-02T23:17:13.158Z,2.11
2023-03-02T23:19:45.637Z,1.89
2023-03-02T23:22:19.129Z,1.95
2023-03-02T23:24:51.400Z,1.93
2023-03-02T23:27:23.982Z,1.93
2023-03-02T23:29:56.300Z,1.97
2023-03-02T23:32:28.613Z,2.08
2023-03-02T23:35:00.962Z,1.93
2023-03-02T23:37:33.983Z,1.94
2023-03-02T23:40:07.989Z,2.00
2023-03-02T23:42:40.263Z,1.96
2023-03-02T23:45:12.955Z,1.96
2023-03-02T23:47:45.389Z,1.83
2023-03-02T23:50:17.875Z,1.86
2023-03-02T23:52:50.903Z,1.92
2023-03-02T23:55:23.279Z,1.97
2023-03-02T23:57:55.573Z,1.98
